Terminal Aerodrome Forecast
Issued by NWS Spokane, WA

Home | Current Version | Previous Version | Text Only | Print | Product List | Glossary On
Versions: 1 2 3 4 5 6 7 8 9 10 11 12 13 14 15 16 17 18 19 20 21 22 23 24 25 26 27 28 29 30 31 32 33 34 35 36 37 38 39 40
000
FTUS46 KOTX 171907 AAA
TAFLWS
TAF AMD
KLWS 171907Z 1719/1818 18011KT P6SM -RA BKN035 OVC040
     FM172100 21014G20KT P6SM -RA OVC025
     FM172300 24017G28KT P6SM -RA OVC050
     FM180200 26023G31KT P6SM VCSH OVC070
     FM180800 25012G20KT P6SM -RA OVC050
     FM181200 26009KT P6SM OVC050
     FM181500 26008KT P6SM -SN OVC040=

USA.gov is the U.S. government's official web portal to all federal, state and local government web resources and services.